sensor_id;sensor_type;location;lat;lon;timestamp;pressure;altitude;pressure_sealevel;temperature;humidity
42601;BME280;28229;48.856;9.088;2022-08-02T00:00:28;98136.56;;;19.19;83.86
42601;BME280;28229;48.856;9.088;2022-08-02T00:02:54;98137.13;;;18.96;85.78
42601;BME280;28229;48.856;9.088;2022-08-02T00:05:20;98137.94;;;18.86;86.59
42601;BME280;28229;48.856;9.088;2022-08-02T00:07:45;98139.00;;;18.90;86.29
42601;BME280;28229;48.856;9.088;2022-08-02T00:10:11;98129.09;;;18.70;88.34
42601;BME280;28229;48.856;9.088;2022-08-02T00:12:37;98134.41;;;18.80;87.40
42601;BME280;28229;48.856;9.088;2022-08-02T00:15:05;98137.94;;;18.86;87.79
42601;BME280;28229;48.856;9.088;2022-08-02T00:17:31;98140.06;;;19.05;86.55
42601;BME280;28229;48.856;9.088;2022-08-02T00:19:57;98144.31;;;18.90;86.74
42601;BME280;28229;48.856;9.088;2022-08-02T00:22:23;98132.59;;;18.96;85.77
42601;BME280;28229;48.856;9.088;2022-08-02T00:24:49;98136.34;;;19.06;84.88
42601;BME280;28229;48.856;9.088;2022-08-02T00:27:15;98140.84;;;19.05;84.50
42601;BME280;28229;48.856;9.088;2022-08-02T00:29:40;98137.66;;;19.03;84.33
42601;BME280;28229;48.856;9.088;2022-08-02T00:32:06;98134.19;;;18.87;85.58
42601;BME280;28229;48.856;9.088;2022-08-02T00:34:32;98139.53;;;18.97;85.40
42601;BME280;28229;48.856;9.088;2022-08-02T00:37:10;98132.88;;;18.90;85.79
42601;BME280;28229;48.856;9.088;2022-08-02T00:39:35;98131.78;;;18.96;86.86
42601;BME280;28229;48.856;9.088;2022-08-02T00:42:01;98130.75;;;19.02;86.57
42601;BME280;28229;48.856;9.088;2022-08-02T00:44:28;98132.59;;;18.86;88.91
42601;BME280;28229;48.856;9.088;2022-08-02T00:46:53;98132.34;;;18.82;88.76
42601;BME280;28229;48.856;9.088;2022-08-02T00:49:19;98136.56;;;18.68;90.29
42601;BME280;28229;48.856;9.088;2022-08-02T00:51:45;98130.66;;;18.51;92.36
42601;BME280;28229;48.856;9.088;2022-08-02T00:54:11;98129.34;;;18.63;91.29
42601;BME280;28229;48.856;9.088;2022-08-02T00:56:37;98123.47;;;18.77;90.05
42601;BME280;28229;48.856;9.088;2022-08-02T00:59:03;98131.53;;;18.92;89.38
42601;BME280;28229;48.856;9.088;2022-08-02T01:01:29;98132.06;;;18.89;89.01
42601;BME280;28229;48.856;9.088;2022-08-02T01:04:11;98136.31;;;18.85;88.91
42601;BME280;28229;48.856;9.088;2022-08-02T01:06:40;98133.91;;;18.68;90.23
42601;BME280;28229;48.856;9.088;2022-08-02T01:09:06;98133.06;;;18.62;90.36
42601;BME280;28229;48.856;9.088;2022-08-02T01:11:34;98136.25;;;18.54;91.03
42601;BME280;28229;48.856;9.088;2022-08-02T01:14:12;98132.81;;;18.49;91.71
42601;BME280;28229;48.856;9.088;2022-08-02T01:17:04;98136.56;;;18.63;90.93
42601;BME280;28229;48.856;9.088;2022-08-02T01:19:50;98141.63;;;18.80;89.65
42601;BME280;28229;48.856;9.088;2022-08-02T01:25:14;98145.28;;;18.48;91.23
42601;BME280;28229;48.856;9.088;2022-08-02T01:30:50;98144.22;;;18.44;91.08
42601;BME280;28229;48.856;9.088;2022-08-02T01:33:21;98144.75;;;18.46;90.73
42601;BME280;28229;48.856;9.088;2022-08-02T01:35:52;98137.84;;;18.50;90.37
42601;BME280;28229;48.856;9.088;2022-08-02T01:38:31;98143.19;;;18.45;90.33
42601;BME280;28229;48.856;9.088;2022-08-02T01:41:01;98148.25;;;18.57;89.37
42601;BME280;28229;48.856;9.088;2022-08-02T01:43:28;98153.84;;;18.65;88.64
42601;BME280;28229;48.856;9.088;2022-08-02T01:45:57;98161.00;;;18.34;90.58
42601;BME280;28229;48.856;9.088;2022-08-02T01:48:26;98158.06;;;18.36;90.40
42601;BME280;28229;48.856;9.088;2022-08-02T01:50:53;98161.25;;;18.33;90.95
42601;BME280;28229;48.856;9.088;2022-08-02T01:53:21;98158.03;;;18.25;91.56
42601;BME280;28229;48.856;9.088;2022-08-02T01:55:52;98166.81;;;18.26;91.31
42601;BME280;28229;48.856;9.088;2022-08-02T01:58:22;98168.66;;;18.20;92.20
42601;BME280;28229;48.856;9.088;2022-08-02T02:00:49;98166.03;;;18.25;91.51
42601;BME280;28229;48.856;9.088;2022-08-02T02:03:21;98162.53;;;18.20;91.21
42601;BME280;28229;48.856;9.088;2022-08-02T02:05:50;98166.50;;;18.12;92.38
42601;BME280;28229;48.856;9.088;2022-08-02T02:08:30;98169.69;;;18.14;92.10
42601;BME280;28229;48.856;9.088;2022-08-02T02:10:57;98166.47;;;18.07;92.57
42601;BME280;28229;48.856;9.088;2022-08-02T02:13:26;98176.53;;;17.95;93.48
42601;BME280;28229;48.856;9.088;2022-08-02T02:15:53;98176.34;;;18.06;92.36
42601;BME280;28229;48.856;9.088;2022-08-02T02:18:24;98164.63;;;18.13;91.86
42601;BME280;28229;48.856;9.088;2022-08-02T02:20:52;98171.03;;;18.12;91.37
42601;BME280;28229;48.856;9.088;2022-08-02T02:23:18;98164.34;;;17.99;91.71
42601;BME280;28229;48.856;9.088;2022-08-02T02:25:45;98157.41;;;18.03;91.72
42601;BME280;28229;48.856;9.088;2022-08-02T02:28:13;98152.59;;;18.00;91.17
42601;BME280;28229;48.856;9.088;2022-08-02T02:30:48;98149.41;;;17.98;91.37
42601;BME280;28229;48.856;9.088;2022-08-02T02:33:19;98152.59;;;18.00;90.77
42601;BME280;28229;48.856;9.088;2022-08-02T02:35:48;98150.00;;;18.10;89.24
42601;BME280;28229;48.856;9.088;2022-08-02T02:38:17;98150.22;;;18.03;89.22
42601;BME280;28229;48.856;9.088;2022-08-02T02:40:45;98138.75;;;17.98;89.44
42601;BME280;28229;48.856;9.088;2022-08-02T02:43:13;98138.22;;;17.96;89.13
42601;BME280;28229;48.856;9.088;2022-08-02T02:45:40;98135.00;;;17.88;89.52
42601;BME280;28229;48.856;9.088;2022-08-02T02:48:08;98130.72;;;17.87;89.44
42601;BME280;28229;48.856;9.088;2022-08-02T02:50:35;98125.88;;;17.79;89.98
42601;BME280;28229;48.856;9.088;2022-08-02T02:53:02;98113.88;;;17.77;89.73
42601;BME280;28229;48.856;9.088;2022-08-02T02:55:43;98113.38;;;17.80;89.36
42601;BME280;28229;48.856;9.088;2022-08-02T02:58:09;98116.91;;;17.91;88.47
42601;BME280;28229;48.856;9.088;2022-08-02T03:00:36;98117.38;;;17.77;89.07
42601;BME280;28229;48.856;9.088;2022-08-02T03:03:21;98114.13;;;17.75;88.98
42601;BME280;28229;48.856;9.088;2022-08-02T03:05:47;98119.75;;;17.79;88.32
42601;BME280;28229;48.856;9.088;2022-08-02T03:08:13;98121.59;;;17.73;88.82
42601;BME280;28229;48.856;9.088;2022-08-02T03:10:39;98121.03;;;17.71;88.63
42601;BME280;28229;48.856;9.088;2022-08-02T03:13:05;98133.78;;;17.64;88.79
42601;BME280;28229;48.856;9.088;2022-08-02T03:15:33;98127.88;;;17.57;89.41
42601;BME280;28229;48.856;9.088;2022-08-02T03:17:59;98129.75;;;17.56;89.00
42601;BME280;28229;48.856;9.088;2022-08-02T03:20:36;98126.84;;;17.58;89.21
42601;BME280;28229;48.856;9.088;2022-08-02T03:23:02;98128.44;;;17.59;89.13
42601;BME280;28229;48.856;9.088;2022-08-02T03:25:28;98133.00;;;17.63;88.60
42601;BME280;28229;48.856;9.088;2022-08-02T03:27:53;98130.38;;;17.74;87.94
42601;BME280;28229;48.856;9.088;2022-08-02T03:30:19;98127.44;;;17.70;87.31
42601;BME280;28229;48.856;9.088;2022-08-02T03:32:49;98139.13;;;17.69;87.68
42601;BME280;28229;48.856;9.088;2022-08-02T03:35:17;98140.69;;;17.60;87.83
42601;BME280;28229;48.856;9.088;2022-08-02T03:37:44;98147.06;;;17.59;87.14
42601;BME280;28229;48.856;9.088;2022-08-02T03:40:11;98141.22;;;17.62;87.07
42601;BME280;28229;48.856;9.088;2022-08-02T03:42:38;98147.03;;;17.54;87.71
42601;BME280;28229;48.856;9.088;2022-08-02T03:45:06;98143.31;;;17.55;87.42
42601;BME280;28229;48.856;9.088;2022-08-02T03:47:33;98151.75;;;17.46;87.37
42601;BME280;28229;48.856;9.088;2022-08-02T03:50:00;98148.88;;;17.53;87.14
42601;BME280;28229;48.856;9.088;2022-08-02T03:52:27;98149.44;;;17.55;86.21
42601;BME280;28229;48.856;9.088;2022-08-02T03:54:53;98157.13;;;17.51;86.15
42601;BME280;28229;48.856;9.088;2022-08-02T03:57:19;98158.16;;;17.45;87.18
42601;BME280;28229;48.856;9.088;2022-08-02T03:59:45;98159.75;;;17.46;86.18
42601;BME280;28229;48.856;9.088;2022-08-02T04:02:12;98160.38;;;17.64;84.72
42601;BME280;28229;48.856;9.088;2022-08-02T04:04:38;98170.22;;;17.63;84.58
42601;BME280;28229;48.856;9.088;2022-08-02T04:07:04;98168.34;;;17.59;84.67
42601;BME280;28229;48.856;9.088;2022-08-02T04:09:30;98174.44;;;17.59;84.30
42601;BME280;28229;48.856;9.088;2022-08-02T04:11:56;98180.56;;;17.55;83.85
42601;BME280;28229;48.856;9.088;2022-08-02T04:14:23;98182.19;;;17.61;83.86
42601;BME280;28229;48.856;9.088;2022-08-02T04:16:52;98184.50;;;17.47;84.42
42601;BME280;28229;48.856;9.088;2022-08-02T04:19:29;98181.97;;;17.67;83.79
42601;BME280;28229;48.856;9.088;2022-08-02T04:21:59;98187.00;;;17.64;83.11
42601;BME280;28229;48.856;9.088;2022-08-02T04:24:27;98186.38;;;17.51;84.06
42601;BME280;28229;48.856;9.088;2022-08-02T04:26:57;98185.84;;;17.49;84.06
42601;BME280;28229;48.856;9.088;2022-08-02T04:29:25;98188.50;;;17.49;84.23
42601;BME280;28229;48.856;9.088;2022-08-02T04:31:52;98184.22;;;17.48;84.21
42601;BME280;28229;48.856;9.088;2022-08-02T04:34:19;98195.38;;;17.45;84.06
42601;BME280;28229;48.856;9.088;2022-08-02T04:36:45;98195.63;;;17.44;84.34
42601;BME280;28229;48.856;9.088;2022-08-02T04:39:12;98196.41;;;17.39;85.23
42601;BME280;28229;48.856;9.088;2022-08-02T04:41:43;98193.28;;;17.47;84.42
42601;BME280;28229;48.856;9.088;2022-08-02T04:44:09;98202.41;;;17.62;83.68
42601;BME280;28229;48.856;9.088;2022-08-02T04:46:35;98188.34;;;17.72;83.12
42601;BME280;28229;48.856;9.088;2022-08-02T04:49:02;98185.69;;;17.72;82.88
42601;BME280;28229;48.856;9.088;2022-08-02T04:51:27;98190.75;;;17.73;82.39
42601;BME280;28229;48.856;9.088;2022-08-02T04:53:53;98185.03;;;17.86;82.32
42601;BME280;28229;48.856;9.088;2022-08-02T04:56:19;98184.44;;;17.79;81.92
42601;BME280;28229;48.856;9.088;2022-08-02T04:58:45;98182.31;;;17.81;82.53
42601;BME280;28229;48.856;9.088;2022-08-02T05:01:11;98199.56;;;17.79;82.89
42601;BME280;28229;48.856;9.088;2022-08-02T05:03:36;98192.66;;;17.78;82.57
42601;BME280;28229;48.856;9.088;2022-08-02T05:06:02;98195.69;;;17.86;83.16
42601;BME280;28229;48.856;9.088;2022-08-02T05:08:28;98196.22;;;17.88;83.18
42601;BME280;28229;48.856;9.088;2022-08-02T05:10:54;98196.47;;;17.87;83.66
42601;BME280;28229;48.856;9.088;2022-08-02T05:13:20;98205.78;;;17.89;83.24
42601;BME280;28229;48.856;9.088;2022-08-02T05:15:48;98201.28;;;17.90;84.41
42601;BME280;28229;48.856;9.088;2022-08-02T05:18:17;98201.31;;;17.95;83.74
42601;BME280;28229;48.856;9.088;2022-08-02T05:20:43;98198.22;;;18.19;82.52
42601;BME280;28229;48.856;9.088;2022-08-02T05:23:09;98189.44;;;18.23;82.57
42601;BME280;28229;48.856;9.088;2022-08-02T05:25:35;98189.50;;;18.44;81.42
42601;BME280;28229;48.856;9.088;2022-08-02T05:28:00;98190.84;;;18.52;80.46
42601;BME280;28229;48.856;9.088;2022-08-02T05:30:26;98188.50;;;18.60;79.53
42601;BME280;28229;48.856;9.088;2022-08-02T05:32:52;98186.34;;;18.52;80.04
42601;BME280;28229;48.856;9.088;2022-08-02T05:35:20;98186.91;;;18.59;79.68
42601;BME280;28229;48.856;9.088;2022-08-02T05:37:58;98185.34;;;18.74;79.01
42601;BME280;28229;48.856;9.088;2022-08-02T05:40:24;98189.06;;;18.78;78.30
42601;BME280;28229;48.856;9.088;2022-08-02T05:42:49;98183.78;;;18.88;78.27
42601;BME280;28229;48.856;9.088;2022-08-02T05:45:15;98186.72;;;19.07;76.97
42601;BME280;28229;48.856;9.088;2022-08-02T05:47:42;98195.53;;;19.13;76.89
42601;BME280;28229;48.856;9.088;2022-08-02T05:50:08;98197.66;;;19.16;75.97
42601;BME280;28229;48.856;9.088;2022-08-02T05:52:37;98192.88;;;19.18;75.56
42601;BME280;28229;48.856;9.088;2022-08-02T05:55:07;98196.03;;;19.30;74.38
42601;BME280;28229;48.856;9.088;2022-08-02T05:57:47;98195.50;;;19.33;73.92
42601;BME280;28229;48.856;9.088;2022-08-02T06:00:15;98195.78;;;19.37;73.81
42601;BME280;28229;48.856;9.088;2022-08-02T06:05:13;98196.28;;;19.65;72.75
42601;BME280;28229;48.856;9.088;2022-08-02T06:07:42;98197.88;;;19.66;72.44
42601;BME280;28229;48.856;9.088;2022-08-02T06:10:09;98195.50;;;19.74;71.63
42601;BME280;28229;48.856;9.088;2022-08-02T06:12:55;98202.97;;;19.77;71.89
42601;BME280;28229;48.856;9.088;2022-08-02T06:15:26;98196.53;;;19.84;71.60
42601;BME280;28229;48.856;9.088;2022-08-02T06:17:52;98196.53;;;19.89;71.56
42601;BME280;28229;48.856;9.088;2022-08-02T06:20:19;98203.97;;;19.97;70.85
42601;BME280;28229;48.856;9.088;2022-08-02T06:22:45;98207.19;;;19.99;70.90
42601;BME280;28229;48.856;9.088;2022-08-02T06:25:12;98203.41;;;20.10;70.84
42601;BME280;28229;48.856;9.088;2022-08-02T06:27:40;98205.00;;;20.16;70.28
42601;BME280;28229;48.856;9.088;2022-08-02T06:30:08;98200.69;;;20.26;69.77
42601;BME280;28229;48.856;9.088;2022-08-02T06:32:34;98203.88;;;20.28;70.09
42601;BME280;28229;48.856;9.088;2022-08-02T06:35:04;98200.88;;;20.40;69.44
42601;BME280;28229;48.856;9.088;2022-08-02T06:37:55;98198.41;;;20.53;68.20
42601;BME280;28229;48.856;9.088;2022-08-02T06:40:30;98203.44;;;20.65;67.96
42601;BME280;28229;48.856;9.088;2022-08-02T06:43:15;98195.94;;;20.67;67.77
42601;BME280;28229;48.856;9.088;2022-08-02T06:45:42;98199.34;;;20.78;67.57
42601;BME280;28229;48.856;9.088;2022-08-02T06:48:09;98205.16;;;20.90;67.10
42601;BME280;28229;48.856;9.088;2022-08-02T06:50:35;98211.03;;;20.92;66.56
42601;BME280;28229;48.856;9.088;2022-08-02T06:53:07;98202.13;;;21.02;66.04
42601;BME280;28229;48.856;9.088;2022-08-02T06:55:33;98204.13;;;21.21;65.56
42601;BME280;28229;48.856;9.088;2022-08-02T07:00:26;98201.09;;;21.33;65.06
42601;BME280;28229;48.856;9.088;2022-08-02T07:02:52;98203.19;;;21.41;64.60
42601;BME280;28229;48.856;9.088;2022-08-02T07:05:18;98215.47;;;21.42;63.85
42601;BME280;28229;48.856;9.088;2022-08-02T07:07:44;98207.69;;;21.45;63.35
42601;BME280;28229;48.856;9.088;2022-08-02T07:10:12;98208.38;;;21.61;62.88
42601;BME280;28229;48.856;9.088;2022-08-02T07:12:37;98207.13;;;21.78;62.92
42601;BME280;28229;48.856;9.088;2022-08-02T07:15:05;98206.13;;;21.98;61.77
42601;BME280;28229;48.856;9.088;2022-08-02T07:17:32;98205.47;;;22.06;60.75
42601;BME280;28229;48.856;9.088;2022-08-02T07:19:59;98213.75;;;22.10;60.52
42601;BME280;28229;48.856;9.088;2022-08-02T07:22:25;98206.22;;;22.12;60.59
42601;BME280;28229;48.856;9.088;2022-08-02T07:24:52;98206.59;;;22.29;60.41
42601;BME280;28229;48.856;9.088;2022-08-02T07:27:19;98208.25;;;22.44;60.15
42601;BME280;28229;48.856;9.088;2022-08-02T07:29:45;98203.84;;;22.72;59.56
42601;BME280;28229;48.856;9.088;2022-08-02T07:32:11;98210.03;;;22.92;57.73
42601;BME280;28229;48.856;9.088;2022-08-02T07:34:37;98206.78;;;23.14;57.52
42601;BME280;28229;48.856;9.088;2022-08-02T07:37:03;98218.84;;;23.30;57.02
42601;BME280;28229;48.856;9.088;2022-08-02T07:39:28;98211.59;;;23.31;56.35
42601;BME280;28229;48.856;9.088;2022-08-02T07:41:54;98214.69;;;23.38;56.49
42601;BME280;28229;48.856;9.088;2022-08-02T07:44:20;98219.72;;;23.59;55.74
42601;BME280;28229;48.856;9.088;2022-08-02T07:46:46;98224.59;;;23.56;55.86
42601;BME280;28229;48.856;9.088;2022-08-02T07:49:12;98222.31;;;23.64;55.70
42601;BME280;28229;48.856;9.088;2022-08-02T07:51:46;98216.41;;;23.81;55.10
42601;BME280;28229;48.856;9.088;2022-08-02T07:54:12;98219.88;;;23.95;54.71
42601;BME280;28229;48.856;9.088;2022-08-02T07:56:38;98220.19;;;24.21;54.40
42601;BME280;28229;48.856;9.088;2022-08-02T07:59:04;98216.19;;;24.32;53.16
42601;BME280;28229;48.856;9.088;2022-08-02T08:01:30;98217.78;;;24.33;53.04
42601;BME280;28229;48.856;9.088;2022-08-02T08:03:56;98216.00;;;24.43;52.54
42601;BME280;28229;48.856;9.088;2022-08-02T08:06:21;98216.59;;;24.54;52.07
42601;BME280;28229;48.856;9.088;2022-08-02T08:08:47;98226.75;;;24.57;51.42
42601;BME280;28229;48.856;9.088;2022-08-02T08:11:13;98219.75;;;24.69;51.82
42601;BME280;28229;48.856;9.088;2022-08-02T08:13:39;98214.28;;;24.97;51.17
42601;BME280;28229;48.856;9.088;2022-08-02T08:16:05;98220.41;;;25.12;50.13
42601;BME280;28229;48.856;9.088;2022-08-02T08:18:31;98221.97;;;25.26;49.81
42601;BME280;28229;48.856;9.088;2022-08-02T08:20:57;98225.50;;;25.36;49.50
42601;BME280;28229;48.856;9.088;2022-08-02T08:23:23;98226.28;;;25.36;49.04
42601;BME280;28229;48.856;9.088;2022-08-02T08:25:49;98220.84;;;25.50;48.92
42601;BME280;28229;48.856;9.088;2022-08-02T08:28:15;98226.81;;;25.70;48.78
42601;BME280;28229;48.856;9.088;2022-08-02T08:30:41;98217.84;;;25.92;47.33
42601;BME280;28229;48.856;9.088;2022-08-02T08:33:07;98218.41;;;25.94;47.90
42601;BME280;28229;48.856;9.088;2022-08-02T08:35:34;98221.75;;;25.99;47.42
42601;BME280;28229;48.856;9.088;2022-08-02T08:38:00;98214.31;;;26.05;47.07
42601;BME280;28229;48.856;9.088;2022-08-02T08:40:26;98231.16;;;26.19;47.23
42601;BME280;28229;48.856;9.088;2022-08-02T08:42:52;98224.53;;;26.43;45.86
42601;BME280;28229;48.856;9.088;2022-08-02T08:45:18;98211.09;;;26.60;45.53
42601;BME280;28229;48.856;9.088;2022-08-02T08:47:47;98211.13;;;26.69;45.20
42601;BME280;28229;48.856;9.088;2022-08-02T08:50:19;98203.38;;;26.85;45.71
42601;BME280;28229;48.856;9.088;2022-08-02T08:53:06;98206.22;;;27.15;45.29
42601;BME280;28229;48.856;9.088;2022-08-02T08:55:35;98213.34;;;27.37;44.52
42601;BME280;28229;48.856;9.088;2022-08-02T08:58:02;98204.59;;;27.40;43.76
42601;BME280;28229;48.856;9.088;2022-08-02T09:00:30;98205.97;;;27.55;43.16
42601;BME280;28229;48.856;9.088;2022-08-02T09:02:57;98209.84;;;27.45;42.77
42601;BME280;28229;48.856;9.088;2022-08-02T09:05:23;98206.31;;;27.53;42.42
42601;BME280;28229;48.856;9.088;2022-08-02T09:07:51;98204.28;;;27.24;42.63
42601;BME280;28229;48.856;9.088;2022-08-02T09:10:46;98208.22;;;27.44;42.61
42601;BME280;28229;48.856;9.088;2022-08-02T09:13:22;98205.81;;;27.60;42.10
42601;BME280;28229;48.856;9.088;2022-08-02T09:16:00;98200.94;;;27.92;40.71
42601;BME280;28229;48.856;9.088;2022-08-02T09:18:34;98206.19;;;27.88;41.28
42601;BME280;28229;48.856;9.088;2022-08-02T09:26:05;98195.63;;;28.34;40.37
42601;BME280;28229;48.856;9.088;2022-08-02T09:28:34;98196.00;;;28.54;40.35
42601;BME280;28229;48.856;9.088;2022-08-02T09:31:10;98199.66;;;28.79;38.48
42601;BME280;28229;48.856;9.088;2022-08-02T09:33:38;98198.44;;;28.89;38.87
42601;BME280;28229;48.856;9.088;2022-08-02T09:38:32;98193.28;;;29.17;39.08
42601;BME280;28229;48.856;9.088;2022-08-02T09:40:59;98193.91;;;29.35;37.94
42601;BME280;28229;48.856;9.088;2022-08-02T09:43:35;98194.44;;;29.28;38.56
42601;BME280;28229;48.856;9.088;2022-08-02T09:46:20;98199.78;;;29.49;38.58
42601;BME280;28229;48.856;9.088;2022-08-02T09:51:28;98193.00;;;29.31;38.21
42601;BME280;28229;48.856;9.088;2022-08-02T09:53:56;98192.34;;;29.46;38.20
42601;BME280;28229;48.856;9.088;2022-08-02T09:56:24;98191.44;;;29.54;38.11
42601;BME280;28229;48.856;9.088;2022-08-02T09:58:51;98198.13;;;29.69;38.08
42601;BME280;28229;48.856;9.088;2022-08-02T10:01:20;98204.16;;;29.87;37.24
42601;BME280;28229;48.856;9.088;2022-08-02T10:04:00;98203.16;;;30.04;36.93
42601;BME280;28229;48.856;9.088;2022-08-02T10:06:27;98201.31;;;30.33;36.81
42601;BME280;28229;48.856;9.088;2022-08-02T10:08:53;98194.38;;;30.60;35.28
42601;BME280;28229;48.856;9.088;2022-08-02T10:11:25;98189.47;;;30.78;35.33
42601;BME280;28229;48.856;9.088;2022-08-02T10:13:53;98186.84;;;30.94;34.81
42601;BME280;28229;48.856;9.088;2022-08-02T10:16:20;98188.72;;;31.06;35.04
42601;BME280;28229;48.856;9.088;2022-08-02T10:18:52;98180.47;;;31.02;34.41
42601;BME280;28229;48.856;9.088;2022-08-02T10:21:32;98165.00;;;31.35;33.91
42601;BME280;28229;48.856;9.088;2022-08-02T10:24:18;98181.47;;;31.70;32.92
42601;BME280;28229;48.856;9.088;2022-08-02T10:26:46;98185.56;;;31.64;33.46
42601;BME280;28229;48.856;9.088;2022-08-02T10:29:19;98176.09;;;31.74;32.74
42601;BME280;28229;48.856;9.088;2022-08-02T10:31:50;98175.19;;;32.01;33.04
42601;BME280;28229;48.856;9.088;2022-08-02T10:34:23;98173.19;;;32.14;32.13
42601;BME280;28229;48.856;9.088;2022-08-02T10:36:53;98171.34;;;32.18;32.16
42601;BME280;28229;48.856;9.088;2022-08-02T10:39:19;98174.38;;;32.33;31.40
42601;BME280;28229;48.856;9.088;2022-08-02T10:41:49;98164.94;;;32.66;30.81
42601;BME280;28229;48.856;9.088;2022-08-02T10:44:27;98164.34;;;32.37;31.39
42601;BME280;28229;48.856;9.088;2022-08-02T10:47:18;98164.34;;;32.37;31.96
42601;BME280;28229;48.856;9.088;2022-08-02T10:54:54;98157.72;;;31.39;33.30
42601;BME280;28229;48.856;9.088;2022-08-02T10:57:32;98157.06;;;31.90;33.08
42601;BME280;28229;48.856;9.088;2022-08-02T11:07:41;98155.59;;;32.28;32.06
42601;BME280;28229;48.856;9.088;2022-08-02T11:12:58;98147.91;;;32.33;31.14
42601;BME280;28229;48.856;9.088;2022-08-02T11:15:24;98145.16;;;32.49;30.27
42601;BME280;28229;48.856;9.088;2022-08-02T11:17:51;98140.63;;;32.37;30.08
42601;BME280;28229;48.856;9.088;2022-08-02T11:20:19;98140.00;;;32.83;29.67
42601;BME280;28229;48.856;9.088;2022-08-02T11:22:47;98136.28;;;32.91;29.32
42601;BME280;28229;48.856;9.088;2022-08-02T11:27:52;98130.66;;;33.04;28.77
42601;BME280;28229;48.856;9.088;2022-08-02T11:30:19;98130.09;;;33.14;28.58
42601;BME280;28229;48.856;9.088;2022-08-02T11:32:46;98124.91;;;33.28;28.31
42601;BME280;28229;48.856;9.088;2022-08-02T11:35:21;98119.78;;;33.50;28.47
42601;BME280;28229;48.856;9.088;2022-08-02T11:37:46;98116.50;;;33.41;28.31
42601;BME280;28229;48.856;9.088;2022-08-02T11:40:17;98107.66;;;33.24;29.18
42601;BME280;28229;48.856;9.088;2022-08-02T11:42:45;98117.97;;;32.92;29.24
42601;BME280;28229;48.856;9.088;2022-08-02T11:45:13;98115.16;;;33.08;29.32
42601;BME280;28229;48.856;9.088;2022-08-02T11:50:13;98109.31;;;33.52;28.85
42601;BME280;28229;48.856;9.088;2022-08-02T11:52:39;98107.72;;;33.28;29.01
42601;BME280;28229;48.856;9.088;2022-08-02T11:55:05;98104.47;;;32.99;29.07
42601;BME280;28229;48.856;9.088;2022-08-02T11:57:32;98102.13;;;32.39;29.63
42601;BME280;28229;48.856;9.088;2022-08-02T11:59:58;98116.00;;;31.79;30.33
42601;BME280;28229;48.856;9.088;2022-08-02T12:02:29;98108.94;;;32.10;29.76
42601;BME280;28229;48.856;9.088;2022-08-02T12:05:04;98107.25;;;31.54;30.05
42601;BME280;28229;48.856;9.088;2022-08-02T12:07:33;98108.78;;;31.86;30.11
42601;BME280;28229;48.856;9.088;2022-08-02T12:10:05;98106.22;;;32.10;29.26
42601;BME280;28229;48.856;9.088;2022-08-02T12:12:31;98115.47;;;32.44;29.25
42601;BME280;28229;48.856;9.088;2022-08-02T12:14:57;98106.69;;;32.70;28.35
42601;BME280;28229;48.856;9.088;2022-08-02T12:17:26;98105.25;;;32.37;28.31
42601;BME280;28229;48.856;9.088;2022-08-02T12:20:11;98111.16;;;32.59;29.04
42601;BME280;28229;48.856;9.088;2022-08-02T12:22:38;98111.06;;;32.55;28.49
42601;BME280;28229;48.856;9.088;2022-08-02T12:25:16;98115.16;;;33.08;28.03
42601;BME280;28229;48.856;9.088;2022-08-02T12:27:43;98102.06;;;33.63;26.65
42601;BME280;28229;48.856;9.088;2022-08-02T12:30:11;98109.75;;;34.07;26.35
42601;BME280;28229;48.856;9.088;2022-08-02T12:32:38;98105.91;;;34.12;26.04
42601;BME280;28229;48.856;9.088;2022-08-02T12:35:16;98105.41;;;33.76;27.02
42601;BME280;28229;48.856;9.088;2022-08-02T12:37:44;98102.31;;;34.35;26.02
42601;BME280;28229;48.856;9.088;2022-08-02T12:40:30;98099.56;;;34.68;25.27
42601;BME280;28229;48.856;9.088;2022-08-02T12:43:06;98095.94;;;34.91;24.84
42601;BME280;28229;48.856;9.088;2022-08-02T12:45:46;98090.38;;;34.46;24.82
42601;BME280;28229;48.856;9.088;2022-08-02T12:48:13;98090.19;;;34.02;25.80
42601;BME280;28229;48.856;9.088;2022-08-02T12:50:39;98091.34;;;34.31;25.42
42601;BME280;28229;48.856;9.088;2022-08-02T12:53:07;98089.28;;;34.55;25.11
42601;BME280;28229;48.856;9.088;2022-08-02T12:55:34;98086.00;;;34.42;25.25
42601;BME280;28229;48.856;9.088;2022-08-02T12:58:04;98078.28;;;34.47;25.05
42601;BME280;28229;48.856;9.088;2022-08-02T13:00:35;98078.34;;;34.55;25.17
42601;BME280;28229;48.856;9.088;2022-08-02T13:03:02;98072.47;;;34.86;24.66
42601;BME280;28229;48.856;9.088;2022-08-02T13:05:28;98076.78;;;34.20;25.32
42601;BME280;28229;48.856;9.088;2022-08-02T13:07:55;98071.34;;;33.93;26.24
42601;BME280;28229;48.856;9.088;2022-08-02T13:10:22;98070.56;;;33.92;26.00
42601;BME280;28229;48.856;9.088;2022-08-02T13:12:49;98069.09;;;34.63;24.96
42601;BME280;28229;48.856;9.088;2022-08-02T13:15:16;98074.13;;;34.95;24.36
42601;BME280;28229;48.856;9.088;2022-08-02T13:17:42;98075.53;;;35.22;23.82
42601;BME280;28229;48.856;9.088;2022-08-02T13:20:09;98063.59;;;35.45;23.65
42601;BME280;28229;48.856;9.088;2022-08-02T13:22:36;98063.81;;;35.70;23.28
42601;BME280;28229;48.856;9.088;2022-08-02T13:25:03;98064.28;;;35.87;23.18
42601;BME280;28229;48.856;9.088;2022-08-02T13:27:29;98061.63;;;35.42;23.19
42601;BME280;28229;48.856;9.088;2022-08-02T13:29:55;98064.88;;;35.10;23.76
42601;BME280;28229;48.856;9.088;2022-08-02T13:32:22;98059.75;;;34.64;24.42
42601;BME280;28229;48.856;9.088;2022-08-02T13:34:49;98065.63;;;33.75;25.14
42601;BME280;28229;48.856;9.088;2022-08-02T13:37:15;98059.25;;;33.41;26.00
42601;BME280;28229;48.856;9.088;2022-08-02T13:39:41;98064.28;;;33.38;25.76
42601;BME280;28229;48.856;9.088;2022-08-02T13:42:07;98060.88;;;33.68;25.75
42601;BME280;28229;48.856;9.088;2022-08-02T13:44:34;98055.34;;;33.91;24.84
42601;BME280;28229;48.856;9.088;2022-08-02T13:47:00;98055.25;;;34.14;24.44
42601;BME280;28229;48.856;9.088;2022-08-02T13:49:26;98054.13;;;34.49;23.79